02:17
Airports
Links
Donate
Help keep this website running!
PayPal
Bitcoin
MATER
No METAR for NLWW
Current Weather Conditions at
No weather report for NLWW
TAF
TAF NLWW 232300Z 2400/2424 07008KT 9999 SCT020 PROB40 TEMPO 2400/2406 4500 SHRA BKN014 SCT020CB TEMPO 2406/2424 2000 TSRA BKN010 SCT018CB
Forecast at NLWW
00:00 24-02-18 to 00:00 25-02-18
Wind:8 Knots from 70°
Visibility:6.21 statute miles
2000SCT Scattered
TEMPO 00:00 24-02-18 to 06:00 24-02-18
40% SHRA
Visibility:2.8 statute miles
1400BKN Broken
2000SCT Scattered
TEMPO 06:00 24-02-18 to 00:00 25-02-18
TSRA
Visibility:1.24 statute miles
1000BKN Broken
1800SCT Scattered